Time;durP1;ratioP1;P1;durP2;ratioP2;P2;SDS_P1;SDS_P2;PMS_P1;PMS_P2;Temp;Humidity;BMP_temperature;BMP_pressure;BME280_temperature;BME280_humidity;BME280_pressure;Samples;Min_cycle;Max_cycle;Signal;HPM_P1;HPM_P2
2021/09/22 00:02:12;;;;;;;58.97;3.20;;;9.00;1.00;;;;;;5012732;28;20532;-70
2021/09/22 00:04:39;;;;;;;58.80;3.07;;;9.00;1.00;;;;;;5012507;28;20498;-70
2021/09/22 00:07:07;;;;;;;58.67;3.13;;;9.00;1.00;;;;;;5012342;28;20507;-70
2021/09/22 00:09:34;;;;;;;58.30;3.07;;;9.00;1.00;;;;;;5012999;28;20497;-70
2021/09/22 00:12:01;;;;;;;58.80;3.10;;;9.00;1.00;;;;;;5012880;28;20535;-70
2021/09/22 00:14:28;;;;;;;58.60;2.90;;;8.90;1.00;;;;;;5012862;28;20578;-70
2021/09/22 00:16:55;;;;;;;58.87;4.00;;;9.00;1.00;;;;;;5012075;28;20555;-70
2021/09/22 00:19:22;;;;;;;58.70;3.30;;;9.00;1.00;;;;;;5012546;28;20495;-70
2021/09/22 00:21:49;;;;;;;58.60;2.87;;;9.00;1.00;;;;;;5012738;28;20536;-70
2021/09/22 00:24:17;;;;;;;58.67;3.10;;;9.00;1.00;;;;;;5012839;28;20536;-70
2021/09/22 00:26:44;;;;;;;58.33;2.90;;;8.90;1.00;;;;;;5014309;28;20558;-70
2021/09/22 00:29:11;;;;;;;58.67;3.10;;;8.90;1.00;;;;;;5031914;28;20550;-70
2021/09/22 00:31:38;;;;;;;59.50;3.40;;;8.90;1.00;;;;;;5031669;28;20538;-70
2021/09/22 00:34:06;;;;;;;58.87;2.97;;;8.90;1.00;;;;;;5032003;28;20479;-70
2021/09/22 00:36:33;;;;;;;58.80;3.30;;;8.90;1.00;;;;;;5031654;28;20542;-70
2021/09/22 00:39:00;;;;;;;58.47;3.00;;;8.90;1.00;;;;;;5031950;28;20535;-70
2021/09/22 00:41:28;;;;;;;58.60;2.80;;;8.90;1.00;;;;;;5031887;28;20482;-70
2021/09/22 00:43:55;;;;;;;58.57;3.00;;;8.80;1.00;;;;;;5031737;28;20475;-70
2021/09/22 00:46:22;;;;;;;58.23;2.80;;;8.80;1.00;;;;;;5031090;28;20538;-70
2021/09/22 00:48:49;;;;;;;58.77;3.10;;;8.80;1.00;;;;;;5031875;28;20539;-70
2021/09/22 00:51:16;;;;;;;58.57;3.10;;;8.80;1.00;;;;;;5031868;28;20535;-70
2021/09/22 00:53:43;;;;;;;58.60;3.00;;;8.80;1.00;;;;;;5031556;28;20570;-70
2021/09/22 00:56:10;;;;;;;59.20;3.67;;;8.70;1.00;;;;;;5031315;28;20534;-70
2021/09/22 00:58:38;;;;;;;58.43;2.87;;;8.70;1.00;;;;;;5027041;28;20549;-70
2021/09/22 01:01:05;;;;;;;58.77;3.20;;;8.70;1.00;;;;;;5011807;28;20570;-70
2021/09/22 01:03:32;;;;;;;59.30;3.67;;;8.70;1.00;;;;;;5011924;28;20961;-70
2021/09/22 01:06:01;;;;;;;59.00;3.10;;;8.60;1.00;;;;;;5024542;28;20479;-70
2021/09/22 01:08:29;;;;;;;58.53;3.10;;;8.60;1.00;;;;;;5031335;28;20470;-70
2021/09/22 01:10:56;;;;;;;58.63;2.77;;;8.60;1.00;;;;;;5033403;28;20479;-70
2021/09/22 01:13:23;;;;;;;58.70;3.00;;;8.50;1.00;;;;;;5035634;28;20487;-70
2021/09/22 01:15:52;;;;;;;58.80;3.03;;;8.50;1.00;;;;;;5035609;28;20488;-70
2021/09/22 01:18:22;;;;;;;58.87;2.90;;;8.50;1.00;;;;;;5035583;28;20562;-70
2021/09/22 01:20:50;;;;;;;58.53;2.80;;;8.40;1.00;;;;;;5037789;28;20450;-71
2021/09/22 01:23:19;;;;;;;58.67;3.10;;;8.40;1.00;;;;;;5038232;28;20546;-70
2021/09/22 01:25:48;;;;;;;58.77;2.90;;;8.40;1.00;;;;;;5036923;28;20695;-70
2021/09/22 01:28:18;;;;;;;58.53;2.90;;;8.40;1.00;;;;;;5036322;28;20578;-70
2021/09/22 01:30:45;;;;;;;58.63;2.83;;;8.40;1.00;;;;;;5027764;28;20498;-70
2021/09/22 01:33:14;;;;;;;58.43;2.97;;;8.40;1.00;;;;;;5015750;28;20480;-70
2021/09/22 01:35:43;;;;;;;58.87;3.40;;;8.40;1.00;;;;;;5015981;28;20534;-70
2021/09/22 01:38:12;;;;;;;58.47;2.70;;;8.40;1.00;;;;;;5017464;28;20492;-70
2021/09/22 01:40:51;;;;;;;58.87;3.60;;;8.40;1.00;;;;;;5014270;28;20538;-70
2021/09/22 01:43:18;;;;;;;58.57;2.87;;;8.40;1.00;;;;;;5014359;28;20486;-70
2021/09/22 01:45:45;;;;;;;59.00;3.53;;;8.40;1.00;;;;;;5013650;28;20893;-70
2021/09/22 01:48:12;;;;;;;58.67;2.90;;;8.30;1.00;;;;;;5013700;28;20496;-70
2021/09/22 01:50:39;;;;;;;58.57;2.87;;;8.30;1.00;;;;;;5014053;28;20526;-70
2021/09/22 01:53:06;;;;;;;58.57;2.97;;;8.30;1.00;;;;;;5014029;28;20483;-70
2021/09/22 01:55:33;;;;;;;58.53;2.90;;;8.30;1.00;;;;;;5013530;28;20571;-70
2021/09/22 01:58:01;;;;;;;58.87;3.13;;;8.30;1.00;;;;;;5013552;28;20561;-70
2021/09/22 02:00:28;;;;;;;58.87;3.03;;;8.20;1.00;;;;;;5013611;28;20539;-70
2021/09/22 02:02:55;;;;;;;59.57;3.70;;;8.20;1.00;;;;;;5012010;28;20546;-70
2021/09/22 02:05:22;;;;;;;58.47;2.93;;;8.20;1.00;;;;;;5013742;28;20482;-70
2021/09/22 02:07:49;;;;;;;58.53;3.00;;;8.20;1.00;;;;;;5013677;28;20549;-70
2021/09/22 02:10:16;;;;;;;58.77;3.33;;;8.10;1.00;;;;;;5013637;28;20484;-70
2021/09/22 02:12:43;;;;;;;58.73;2.80;;;8.10;1.00;;;;;;5013567;28;20546;-70
2021/09/22 02:15:12;;;;;;;59.07;4.53;;;8.10;1.00;;;;;;5013456;28;20825;-72
2021/09/22 02:17:38;;;;;;;59.97;3.20;;;8.10;1.00;;;;;;5013321;28;20497;-70
2021/09/22 02:20:07;;;;;;;58.63;3.20;;;8.10;1.00;;;;;;5013550;28;20535;-70
2021/09/22 02:22:34;;;;;;;58.47;3.00;;;8.10;1.00;;;;;;5013174;28;20455;-70
2021/09/22 02:25:01;;;;;;;58.47;3.00;;;8.00;1.00;;;;;;5013508;28;20887;-70
2021/09/22 02:27:28;;;;;;;58.57;3.27;;;8.00;1.00;;;;;;5012770;28;20898;-70
2021/09/22 02:29:55;;;;;;;58.73;3.10;;;8.00;1.00;;;;;;4974827;28;1133112;-70
2021/09/22 02:32:23;;;;;;;58.67;3.50;;;8.00;1.00;;;;;;5014617;28;20242;-71
2021/09/22 02:34:50;;;;;;;58.78;3.15;;;8.00;1.00;;;;;;5012770;28;20914;-70
2021/09/22 02:37:17;;;;;;;59.10;3.60;;;8.00;1.00;;;;;;5013813;28;20263;-70
2021/09/22 02:39:44;;;;;;;58.97;3.40;;;8.00;1.00;;;;;;5014325;28;20488;-70
2021/09/22 02:42:11;;;;;;;58.67;3.10;;;8.00;1.00;;;;;;5013972;28;20540;-70
2021/09/22 02:44:38;;;;;;;58.63;3.27;;;7.90;1.00;;;;;;5014419;28;20539;-70
2021/09/22 02:47:05;;;;;;;58.37;2.83;;;7.90;1.00;;;;;;5013740;28;20501;-70
2021/09/22 02:49:33;;;;;;;58.58;3.03;;;7.90;1.00;;;;;;5014196;28;20485;-70
2021/09/22 02:52:00;;;;;;;58.67;3.03;;;7.90;1.00;;;;;;5014403;28;20311;-70
2021/09/22 02:54:27;;;;;;;58.77;3.40;;;7.80;1.00;;;;;;5014158;28;20312;-70
2021/09/22 02:56:54;;;;;;;59.03;3.15;;;7.80;1.00;;;;;;5013282;28;20562;-70
2021/09/22 02:59:21;;;;;;;58.70;3.20;;;7.80;1.00;;;;;;5013842;28;20300;-70
2021/09/22 03:01:48;;;;;;;59.00;3.30;;;7.80;1.00;;;;;;5013988;28;20533;-70
2021/09/22 03:04:15;;;;;;;58.77;3.30;;;7.80;1.00;;;;;;5014002;28;20532;-70
2021/09/22 03:06:43;;;;;;;58.80;3.45;;;7.80;1.00;;;;;;5013179;28;20553;-70
2021/09/22 03:09:10;;;;;;;58.97;3.20;;;7.80;1.00;;;;;;5012433;28;20663;-70
2021/09/22 03:11:37;;;;;;;58.67;2.75;;;7.80;1.00;;;;;;5013863;28;20293;-70
2021/09/22 03:14:04;;;;;;;58.70;3.20;;;7.70;1.00;;;;;;5013711;28;20296;-70
2021/09/22 03:16:32;;;;;;;58.57;2.90;;;7.70;1.00;;;;;;5013167;28;21003;-70
2021/09/22 03:18:59;;;;;;;58.33;2.87;;;7.70;1.00;;;;;;5013613;28;20512;-70
2021/09/22 03:21:26;;;;;;;59.07;3.40;;;7.60;1.00;;;;;;5013492;28;20482;-70
2021/09/22 03:23:55;;;;;;;58.70;2.85;;;7.60;1.00;;;;;;5013198;28;20534;-70
2021/09/22 03:26:23;;;;;;;58.78;3.05;;;7.50;1.00;;;;;;5013049;28;20242;-70
2021/09/22 03:28:50;;;;;;;58.70;2.90;;;7.50;1.00;;;;;;5013399;28;20303;-70
2021/09/22 03:31:17;;;;;;;58.80;3.00;;;7.40;1.00;;;;;;5013392;28;20542;-70
2021/09/22 03:33:44;;;;;;;59.20;3.67;;;7.40;1.00;;;;;;5012549;28;20478;-70
2021/09/22 03:36:12;;;;;;;58.57;3.03;;;7.40;1.00;;;;;;5012767;28;20271;-70
2021/09/22 03:38:39;;;;;;;60.57;4.30;;;7.40;1.00;;;;;;5012453;28;20545;-70
2021/09/22 03:41:07;;;;;;;58.88;3.10;;;7.50;1.00;;;;;;5013168;28;20487;-70
2021/09/22 03:43:34;;;;;;;58.53;2.90;;;7.50;1.00;;;;;;5013215;28;20240;-70
2021/09/22 03:46:01;;;;;;;58.47;2.83;;;7.50;1.00;;;;;;5012753;28;20534;-70
2021/09/22 03:48:28;;;;;;;58.38;3.17;;;7.50;1.00;;;;;;5012918;28;20584;-70
2021/09/22 03:50:55;;;;;;;59.00;3.47;;;7.50;1.00;;;;;;5012771;28;20295;-70
2021/09/22 03:53:22;;;;;;;58.50;2.90;;;7.60;1.00;;;;;;5013161;28;20294;-70
2021/09/22 03:55:49;;;;;;;58.67;3.17;;;7.60;1.00;;;;;;5012612;28;20577;-70
2021/09/22 03:58:18;;;;;;;58.67;2.90;;;7.60;1.00;;;;;;5012888;28;20518;-71
2021/09/22 04:00:45;;;;;;;58.43;2.90;;;7.50;1.00;;;;;;5012793;28;20502;-71
2021/09/22 04:03:12;;;;;;;58.60;3.20;;;7.50;1.00;;;;;;5012760;28;20494;-70
2021/09/22 04:05:39;;;;;;;58.40;2.60;;;7.50;1.00;;;;;;5012703;28;20540;-70
2021/09/22 04:08:06;;;;;;;58.40;2.80;;;7.50;1.00;;;;;;5012697;28;20511;-70
2021/09/22 04:10:33;;;;;;;58.67;2.93;;;7.40;1.00;;;;;;5012758;28;20484;-70
2021/09/22 04:13:00;;;;;;;59.50;3.90;;;7.40;1.00;;;;;;5011070;28;20486;-70
2021/09/22 04:15:29;;;;;;;58.27;2.90;;;7.40;1.00;;;;;;5012647;28;20570;-70
2021/09/22 04:17:55;;;;;;;59.20;3.83;;;7.40;1.00;;;;;;5012558;28;20503;-70
2021/09/22 04:20:22;;;;;;;58.63;2.90;;;7.40;1.00;;;;;;5012658;28;20635;-70
2021/09/22 04:22:49;;;;;;;58.90;3.53;;;7.40;1.00;;;;;;5012331;28;20530;-70
2021/09/22 04:25:16;;;;;;;59.00;2.92;;;7.40;1.00;;;;;;5012440;28;20982;-71
2021/09/22 04:27:43;;;;;;;58.92;3.10;;;7.40;1.00;;;;;;5011990;28;20640;-71
2021/09/22 04:30:11;;;;;;;58.67;2.90;;;7.30;1.00;;;;;;5012182;28;20307;-71
2021/09/22 04:32:39;;;;;;;58.77;3.30;;;7.30;1.00;;;;;;5012012;28;20494;-71
2021/09/22 04:35:07;;;;;;;58.38;2.90;;;7.30;1.00;;;;;;5011997;28;21076;-71
2021/09/22 04:37:37;;;;;;;58.58;3.10;;;7.30;1.00;;;;;;5012162;28;20321;-71
2021/09/22 04:40:06;;;;;;;58.83;3.63;;;7.30;1.00;;;;;;5012004;28;20204;-71
2021/09/22 04:42:34;;;;;;;58.67;3.03;;;7.30;1.00;;;;;;5011895;28;20450;-71
2021/09/22 04:45:01;;;;;;;58.77;2.97;;;7.30;1.00;;;;;;5023356;28;20525;-71
2021/09/22 04:47:29;;;;;;;58.27;2.80;;;7.30;1.00;;;;;;5031231;28;20907;-71
2021/09/22 04:49:57;;;;;;;58.77;3.20;;;7.30;1.00;;;;;;5031430;28;20827;-70
2021/09/22 04:52:24;;;;;;;58.67;3.10;;;7.30;1.00;;;;;;5031405;28;20540;-71
2021/09/22 04:54:51;;;;;;;59.30;3.10;;;7.30;1.00;;;;;;5031431;28;20512;-71
2021/09/22 04:57:18;;;;;;;58.90;3.10;;;7.20;1.00;;;;;;5031201;28;20550;-71
2021/09/22 04:59:45;;;;;;;58.57;3.10;;;7.20;1.00;;;;;;5031342;28;20250;-71
2021/09/22 05:02:12;;;;;;;58.57;2.87;;;7.20;1.00;;;;;;5031562;28;20491;-72
2021/09/22 05:04:39;;;;;;;58.77;3.30;;;7.20;1.00;;;;;;5031688;28;20544;-70
2021/09/22 05:07:07;;;;;;;58.90;3.57;;;7.20;1.00;;;;;;5030876;28;20554;-70
2021/09/22 05:09:34;;;;;;;58.63;2.80;;;7.20;1.00;;;;;;5031574;28;20485;-70
2021/09/22 05:12:01;;;;;;;58.97;3.00;;;7.20;1.00;;;;;;5031463;28;20490;-70
2021/09/22 05:14:28;;;;;;;58.90;3.30;;;7.20;1.00;;;;;;5031555;28;20846;-70
2021/09/22 05:16:55;;;;;;;58.58;3.10;;;7.20;1.00;;;;;;5021925;28;20316;-70
2021/09/22 05:19:22;;;;;;;58.75;3.10;;;7.20;1.00;;;;;;5011786;28;20243;-70
2021/09/22 05:21:49;;;;;;;58.67;2.85;;;7.20;1.00;;;;;;5011779;28;20663;-70
2021/09/22 05:24:17;;;;;;;58.35;2.65;;;7.20;1.00;;;;;;5011765;28;20291;-70
2021/09/22 05:26:44;;;;;;;58.80;2.92;;;7.10;1.00;;;;;;5011143;28;20306;-70
2021/09/22 05:29:11;;;;;;;58.53;2.95;;;7.20;1.00;;;;;;5011662;28;20246;-70
2021/09/22 05:31:38;;;;;;;59.20;3.00;;;7.10;1.00;;;;;;5011904;28;20302;-70
2021/09/22 05:34:05;;;;;;;58.37;2.90;;;7.10;1.00;;;;;;5011631;28;20590;-70
2021/09/22 05:36:32;;;;;;;58.70;3.00;;;7.20;1.00;;;;;;5011205;28;20577;-70
2021/09/22 05:38:59;;;;;;;58.97;3.05;;;7.20;1.00;;;;;;5011423;28;20484;-70
2021/09/22 05:41:28;;;;;;;58.77;3.33;;;7.20;1.00;;;;;;5011403;28;20631;-70
2021/09/22 05:43:54;;;;;;;58.70;2.80;;;7.30;1.00;;;;;;5011632;28;20489;-70
2021/09/22 05:46:22;;;;;;;58.90;3.20;;;7.30;1.00;;;;;;5011065;28;20239;-70
2021/09/22 05:48:48;;;;;;;58.22;3.03;;;7.30;1.00;;;;;;5010149;28;20245;-70
2021/09/22 05:51:16;;;;;;;58.60;3.00;;;7.30;1.00;;;;;;5011322;28;20457;-70
2021/09/22 05:53:44;;;;;;;58.27;3.00;;;7.30;1.00;;;;;;5011256;28;20590;-70
2021/09/22 05:56:11;;;;;;;59.17;3.08;;;7.40;1.00;;;;;;5011293;28;20493;-70
2021/09/22 05:58:39;;;;;;;58.70;2.93;;;7.40;1.00;;;;;;5015133;28;20324;-70
2021/09/22 06:01:06;;;;;;;60.03;4.30;;;7.40;1.00;;;;;;5015095;28;21013;-70
2021/09/22 06:03:34;;;;;;;58.80;3.30;;;7.50;1.00;;;;;;5015043;28;20486;-70
2021/09/22 06:06:01;;;;;;;59.67;3.40;;;7.50;1.00;;;;;;5014449;28;20208;-70
2021/09/22 06:08:28;;;;;;;58.57;3.00;;;7.60;1.00;;;;;;5014588;28;20586;-70
2021/09/22 06:10:55;;;;;;;58.58;2.88;;;7.70;1.00;;;;;;5014618;28;20537;-70
2021/09/22 06:13:22;;;;;;;58.80;3.13;;;7.70;1.00;;;;;;5014933;28;20295;-70
2021/09/22 06:15:52;;;;;;;59.00;3.53;;;7.70;1.00;;;;;;5014320;28;20569;-70
2021/09/22 06:18:19;;;;;;;58.70;3.10;;;7.80;1.00;;;;;;5014617;28;20479;-70
2021/09/22 06:20:46;;;;;;;58.38;2.97;;;7.80;1.00;;;;;;5012811;28;20451;-70
2021/09/22 06:23:13;;;;;;;59.50;3.57;;;7.90;1.00;;;;;;5014467;28;20730;-70
2021/09/22 06:25:40;;;;;;;58.37;2.80;;;7.90;1.00;;;;;;5014467;28;20536;-70
2021/09/22 06:28:07;;;;;;;58.53;3.10;;;7.90;1.00;;;;;;5014221;28;20556;-70
2021/09/22 06:30:34;;;;;;;60.33;4.17;;;8.00;1.00;;;;;;5014439;28;20543;-70
2021/09/22 06:33:03;;;;;;;58.67;3.10;;;8.00;1.00;;;;;;5014251;28;20542;-70
2021/09/22 06:35:30;;;;;;;58.80;2.80;;;8.10;1.00;;;;;;5013798;28;20567;-70
2021/09/22 06:37:57;;;;;;;58.80;2.97;;;8.10;1.00;;;;;;5014290;28;20562;-70
2021/09/22 06:40:24;;;;;;;58.47;3.00;;;8.20;1.00;;;;;;5014380;28;20482;-70
2021/09/22 06:42:51;;;;;;;60.47;3.00;;;8.20;1.00;;;;;;5014083;28;20987;-70
2021/09/22 06:45:20;;;;;;;59.30;3.30;;;8.30;1.00;;;;;;5014170;28;20534;-70
2021/09/22 06:47:47;;;;;;;58.27;3.10;;;8.40;1.00;;;;;;5013747;28;20476;-71
2021/09/22 06:50:15;;;;;;;58.77;3.70;;;8.50;1.00;;;;;;5013969;28;20467;-71
2021/09/22 06:52:42;;;;;;;58.70;3.00;;;8.60;1.00;;;;;;5012595;28;20487;-70
2021/09/22 06:55:10;;;;;;;58.57;2.90;;;8.70;1.00;;;;;;5013744;28;20886;-71
2021/09/22 06:57:37;;;;;;;58.53;3.30;;;8.80;1.00;;;;;;5013625;28;20468;-71
2021/09/22 07:00:09;;;;;;;58.13;2.77;;;8.80;1.00;;;;;;5013901;28;20500;-71
2021/09/22 07:02:36;;;;;;;60.60;2.80;;;9.00;1.00;;;;;;5013678;28;20953;-71
2021/09/22 07:05:04;;;;;;;58.70;3.00;;;9.10;1.00;;;;;;5013949;28;20526;-71
2021/09/22 07:07:32;;;;;;;58.33;2.90;;;9.30;1.00;;;;;;5012618;28;20907;-71
2021/09/22 07:09:59;;;;;;;58.17;2.90;;;9.40;1.00;;;;;;5013214;28;20548;-71
2021/09/22 07:12:25;;;;;;;58.13;2.80;;;9.50;1.00;;;;;;5013566;28;20489;-71
2021/09/22 07:14:52;;;;;;;58.23;3.00;;;9.50;1.00;;;;;;5013421;28;20533;-71
2021/09/22 07:17:19;;;;;;;59.77;5.00;;;9.60;1.00;;;;;;5012869;28;20931;-71
2021/09/22 07:19:46;;;;;;;58.47;2.80;;;9.70;1.00;;;;;;5013600;28;20537;-71
2021/09/22 07:22:13;;;;;;;58.60;3.30;;;9.80;1.00;;;;;;5013450;28;20544;-71
2021/09/22 07:24:42;;;;;;;58.37;3.00;;;9.90;1.00;;;;;;5012207;28;20449;-70
2021/09/22 07:27:09;;;;;;;58.20;2.70;;;10.00;1.00;;;;;;5032311;28;20585;-71
2021/09/22 07:29:35;;;;;;;58.17;2.70;;;10.00;1.00;;;;;;5033097;28;20910;-71
2021/09/22 07:32:05;;;;;;;58.37;2.80;;;10.10;1.00;;;;;;5033161;28;20460;-71
2021/09/22 07:34:32;;;;;;;58.27;2.80;;;10.20;1.00;;;;;;5032694;28;20456;-71
2021/09/22 07:37:00;;;;;;;58.13;2.90;;;10.20;1.00;;;;;;5032364;28;20584;-71
2021/09/22 07:39:27;;;;;;;58.50;3.10;;;10.20;1.00;;;;;;5032409;28;20453;-71
2021/09/22 07:41:56;;;;;;;58.50;3.20;;;10.30;1.00;;;;;;5032550;28;20485;-71
2021/09/22 07:44:23;;;;;;;58.27;2.90;;;10.40;1.00;;;;;;5032732;28;20448;-71
2021/09/22 07:46:49;;;;;;;58.67;3.00;;;10.40;1.00;;;;;;5032663;28;20508;-70
2021/09/22 07:49:16;;;;;;;58.07;2.73;;;10.50;1.00;;;;;;5032814;28;20999;-71
2021/09/22 07:51:43;;;;;;;58.50;2.90;;;10.60;1.00;;;;;;5032519;28;20535;-71
2021/09/22 07:54:10;;;;;;;58.07;2.70;;;10.70;1.00;;;;;;5032271;28;20506;-71
2021/09/22 07:56:37;;;;;;;58.43;2.77;;;10.90;1.00;;;;;;5031628;28;20519;-71
2021/09/22 07:59:06;;;;;;;57.93;2.70;;;11.00;1.00;;;;;;5012039;28;20537;-71
2021/09/22 08:01:33;;;;;;;58.30;3.03;;;11.10;1.00;;;;;;5013101;28;20887;-71
2021/09/22 08:04:00;;;;;;;58.47;2.97;;;11.10;1.00;;;;;;5013089;28;20478;-71
2021/09/22 08:06:27;;;;;;;58.13;2.90;;;11.20;1.00;;;;;;5012444;28;20525;-71
2021/09/22 08:08:54;;;;;;;58.73;3.37;;;11.30;1.00;;;;;;5012725;28;20478;-71
2021/09/22 08:11:21;;;;;;;58.37;2.90;;;11.40;1.00;;;;;;5012545;28;20493;-71
2021/09/22 08:13:48;;;;;;;58.60;3.10;;;11.50;1.00;;;;;;5012587;28;20537;-71
2021/09/22 08:16:16;;;;;;;58.80;3.47;;;11.60;1.00;;;;;;5012455;28;20517;-71
2021/09/22 08:18:46;;;;;;;58.90;2.83;;;11.60;1.00;;;;;;5012442;28;20887;-71
2021/09/22 08:21:13;;;;;;;58.30;3.10;;;11.90;1.00;;;;;;5012567;28;20524;-71
2021/09/22 08:23:40;;;;;;;58.17;2.60;;;12.00;1.00;;;;;;5012498;28;20831;-71
2021/09/22 08:26:07;;;;;;;58.77;3.10;;;12.20;1.00;;;;;;5011899;28;20468;-70
2021/09/22 08:28:34;;;;;;;58.27;2.80;;;12.30;1.00;;;;;;5011149;28;20513;-70
2021/09/22 08:31:01;;;;;;;58.03;2.80;;;12.40;1.00;;;;;;5011893;28;20878;-70
2021/09/22 08:33:29;;;;;;;58.50;3.00;;;12.60;1.00;;;;;;5012419;28;20897;-71
2021/09/22 08:35:56;;;;;;;58.20;2.63;;;12.80;1.00;;;;;;5011703;28;20577;-71
2021/09/22 08:38:23;;;;;;;58.27;2.90;;;12.90;1.00;;;;;;5011988;28;20552;-71
2021/09/22 08:40:52;;;;;;;58.17;2.80;;;13.10;1.00;;;;;;5012237;28;20512;-71
2021/09/22 08:43:23;;;;;;;58.07;2.50;;;13.20;1.00;;;;;;5012280;28;20446;-71
2021/09/22 08:45:50;;;;;;;58.23;2.63;;;13.30;1.00;;;;;;5011587;28;20966;-71
2021/09/22 08:48:18;;;;;;;58.23;2.97;;;13.40;1.00;;;;;;5012072;28;20505;-71
2021/09/22 08:50:47;;;;;;;58.70;3.10;;;13.60;1.00;;;;;;5011949;28;20545;-71
2021/09/22 08:53:13;;;;;;;58.27;2.97;;;13.70;1.00;;;;;;5012199;28;20885;-71
2021/09/22 08:55:40;;;;;;;58.97;3.47;;;13.80;1.00;;;;;;5011686;28;20537;-71
2021/09/22 08:58:07;;;;;;;58.07;2.70;;;13.90;1.00;;;;;;5011905;28;20573;-71
2021/09/22 09:00:35;;;;;;;58.07;2.67;;;14.10;1.00;;;;;;5010278;28;20635;-71
2021/09/22 09:03:02;;;;;;;58.17;2.87;;;14.30;1.00;;;;;;5011897;28;20620;-70
2021/09/22 09:05:29;;;;;;;58.80;3.53;;;14.50;1.00;;;;;;5011506;28;20546;-70
2021/09/22 09:08:00;;;;;;;58.70;3.23;;;14.70;1.00;;;;;;5012006;28;20563;-71
2021/09/22 09:10:29;;;;;;;58.50;3.10;;;14.90;1.00;;;;;;5011967;28;20482;-71
2021/09/22 09:13:00;;;;;;;58.33;2.87;;;15.10;1.00;;;;;;5011949;28;20452;-71
2021/09/22 09:15:32;;;;;;;58.50;2.80;;;15.30;1.00;;;;;;5011628;28;20481;-70
2021/09/22 09:18:01;;;;;;;58.07;2.90;;;15.50;1.00;;;;;;5011368;28;20594;-70
2021/09/22 09:20:29;;;;;;;59.00;3.47;;;15.70;1.00;;;;;;5012019;28;20872;-71
2021/09/22 09:23:07;;;;;;;58.07;2.70;;;15.80;1.00;;;;;;5011767;28;20483;-70
2021/09/22 09:25:38;;;;;;;58.30;2.90;;;16.00;1.00;;;;;;5011709;28;20496;-70
2021/09/22 09:28:22;;;;;;;60.70;3.60;;;16.30;1.00;;;;;;5011513;28;20816;-71
2021/09/22 09:30:51;;;;;;;58.50;3.20;;;16.60;1.00;;;;;;5010582;28;20550;-71
2021/09/22 09:33:34;;;;;;;58.80;3.30;;;16.90;1.00;;;;;;5027515;28;20553;-71
2021/09/22 09:36:14;;;;;;;58.20;2.60;;;17.40;1.00;;;;;;5033152;28;20559;-70
2021/09/22 09:38:47;;;;;;;57.97;2.87;;;17.90;1.00;;;;;;5034452;28;20554;-71
2021/09/22 09:41:23;;;;;;;58.13;2.80;;;18.30;1.00;;;;;;5035317;28;20527;-71
2021/09/22 09:43:50;;;;;;;57.97;2.53;;;18.70;1.00;;;;;;5034068;28;20491;-71
2021/09/22 09:46:20;;;;;;;59.23;3.77;;;19.20;1.00;;;;;;5034442;28;20532;-71
2021/09/22 09:48:59;;;;;;;60.07;3.40;;;19.70;1.00;;;;;;5034932;28;20451;-70
2021/09/22 09:51:43;;;;;;;58.90;3.10;;;20.20;1.00;;;;;;5034843;28;20536;-71
2021/09/22 09:54:21;;;;;;;57.87;2.70;;;20.70;1.00;;;;;;5035046;28;20488;-71
2021/09/22 09:56:49;;;;;;;59.13;3.20;;;21.20;1.00;;;;;;5034520;28;20571;-71
2021/09/22 09:59:18;;;;;;;58.20;2.83;;;21.40;1.00;;;;;;5034667;28;20484;-69
2021/09/22 10:01:47;;;;;;;58.00;2.60;;;21.80;1.00;;;;;;5033975;28;20449;-66
2021/09/22 10:04:17;;;;;;;58.00;2.40;;;22.10;1.00;;;;;;5034846;28;20514;-70
2021/09/22 10:06:44;;;;;;;58.77;3.50;;;22.40;1.00;;;;;;5034647;28;20571;-69
2021/09/22 10:09:13;;;;;;;58.47;2.83;;;22.50;1.00;;;;;;5034700;28;20452;-68
2021/09/22 10:11:44;;;;;;;58.00;2.40;;;23.00;1.00;;;;;;5034677;28;20529;-66
2021/09/22 10:14:13;;;;;;;58.50;3.00;;;23.60;1.00;;;;;;5034459;28;20454;-68
2021/09/22 10:16:42;;;;;;;57.77;2.40;;;24.20;1.00;;;;;;5034416;28;20584;-68
2021/09/22 10:19:10;;;;;;;58.40;2.97;;;24.40;1.00;;;;;;5023084;28;20484;-69
2021/09/22 10:21:38;;;;;;;58.07;2.47;;;24.40;1.00;;;;;;5025966;28;21035;-68
2021/09/22 10:24:09;;;;;;;58.97;3.57;;;24.50;1.00;;;;;;5031527;28;20464;-68
2021/09/22 10:26:37;;;;;;;58.20;2.80;;;24.70;1.00;;;;;;5029020;28;20452;-69
2021/09/22 10:32:00;;;;;;;58.17;2.87;;;24.90;1.00;;;;;;5065817;28;20633;-69
2021/09/22 10:34:32;;;;;;;57.77;2.27;;;25.50;1.00;;;;;;5065569;28;20532;-69
2021/09/22 10:37:01;;;;;;;58.20;2.40;;;25.60;1.00;;;;;;5065015;28;20491;-69
2021/09/22 10:39:42;;;;;;;57.83;2.50;;;25.90;1.00;;;;;;5065382;28;20710;-69
2021/09/22 10:42:29;;;;;;;58.93;2.97;;;26.20;1.00;;;;;;5065661;28;20875;-69
2021/09/22 10:45:14;;;;;;;57.93;2.30;;;26.50;1.00;;;;;;5065336;28;20452;-69
2021/09/22 10:47:43;;;;;;;58.20;2.40;;;26.60;1.00;;;;;;5065217;28;20547;-70
2021/09/22 10:50:14;;;;;;;57.90;2.50;;;26.90;1.00;;;;;;5065557;27;20879;-69
2021/09/22 10:52:42;;;;;;;57.47;2.37;;;26.80;1.00;;;;;;5065313;28;20531;-69
2021/09/22 10:55:13;;;;;;;57.73;2.33;;;27.10;1.00;;;;;;5065075;28;20531;-69
2021/09/22 10:57:41;;;;;;;57.67;2.47;;;27.50;1.00;;;;;;5062260;27;20478;-69
2021/09/22 11:00:13;;;;;;;57.70;2.40;;;28.10;1.00;;;;;;5065111;28;20534;-70
2021/09/22 11:02:48;;;;;;;58.00;2.90;;;28.40;1.00;;;;;;5065112;28;20984;-70
2021/09/22 11:05:15;;;;;;;58.27;2.67;;;28.30;1.00;;;;;;5065305;28;20447;-69
2021/09/22 11:07:58;;;;;;;57.90;2.50;;;27.90;1.00;;;;;;5064702;28;20555;-69
2021/09/22 11:10:33;;;;;;;57.70;2.40;;;27.50;1.00;;;;;;5064915;27;20483;-69
2021/09/22 11:13:37;;;;;;;58.00;2.80;;;27.30;1.00;;;;;;5064919;27;20958;-69
2021/09/22 11:16:13;;;;;;;57.67;2.27;;;27.20;1.00;;;;;;5064929;27;20452;-69
2021/09/22 11:18:45;;;;;;;57.60;2.10;;;27.30;1.00;;;;;;5064735;28;20545;-69
2021/09/22 11:21:12;;;;;;;57.57;2.30;;;27.40;1.00;;;;;;5065160;28;20471;-70
2021/09/22 11:23:42;;;;;;;57.87;3.00;;;27.70;1.00;;;;;;5064648;28;20530;-69
2021/09/22 11:26:10;;;;;;;57.80;2.50;;;28.10;1.00;;;;;;5064596;28;20551;-66
2021/09/22 11:28:37;;;;;;;57.70;2.57;;;28.30;1.00;;;;;;5064682;28;20559;-68
2021/09/22 11:31:04;;;;;;;57.43;2.27;;;28.60;1.00;;;;;;5064542;28;20574;-68
2021/09/22 11:33:31;;;;;;;57.57;2.40;;;28.50;1.00;;;;;;5064439;28;20479;-66
2021/09/22 11:36:07;;;;;;;57.43;2.10;;;28.90;1.00;;;;;;5064194;28;20478;-66
2021/09/22 11:38:35;;;;;;;58.30;3.00;;;29.20;1.00;;;;;;5064722;28;20506;-67
2021/09/22 11:41:02;;;;;;;57.67;2.37;;;29.20;1.00;;;;;;5064344;28;20518;-67
2021/09/22 11:43:29;;;;;;;57.70;2.33;;;29.00;1.00;;;;;;5050666;28;20537;-67
2021/09/22 11:46:00;;;;;;;57.47;2.23;;;29.10;1.00;;;;;;5050993;28;20537;-67
2021/09/22 11:48:30;;;;;;;57.40;2.20;;;29.10;1.00;;;;;;5051228;27;20503;-67
2021/09/22 11:50:58;;;;;;;57.53;2.30;;;29.00;1.00;;;;;;5051046;28;20924;-67
2021/09/22 11:53:30;;;;;;;57.30;2.10;;;28.70;1.00;;;;;;5051161;28;20441;-67
2021/09/22 11:55:58;;;;;;;57.40;2.20;;;28.40;1.00;;;;;;5050640;28;20457;-67
2021/09/22 11:58:27;;;;;;;57.30;2.20;;;28.40;1.00;;;;;;5050717;28;20475;-67
2021/09/22 12:00:56;;;;;;;57.37;2.30;;;28.80;1.00;;;;;;5050933;28;20533;-67
2021/09/22 12:03:25;;;;;;;57.90;2.50;;;29.10;1.00;;;;;;5050834;28;20541;-67
2021/09/22 12:06:04;;;;;;;57.77;2.43;;;29.40;1.00;;;;;;5050140;27;20866;-67
2021/09/22 12:08:33;;;;;;;57.57;2.10;;;29.50;1.00;;;;;;5048066;27;20599;-67
2021/09/22 12:11:01;;;;;;;57.20;2.20;;;29.90;1.00;;;;;;5050465;28;20567;-67
2021/09/22 12:13:28;;;;;;;57.50;2.50;;;30.30;1.00;;;;;;5050758;28;20487;-67
2021/09/22 12:15:56;;;;;;;57.50;2.47;;;30.90;1.00;;;;;;5050362;28;20551;-67
2021/09/22 12:18:24;;;;;;;57.40;2.30;;;31.50;1.00;;;;;;5050606;28;20555;-67
2021/09/22 12:20:51;;;;;;;57.27;2.20;;;31.90;1.00;;;;;;5050499;28;20527;-67
2021/09/22 12:23:25;;;;;;;57.40;2.30;;;32.20;1.00;;;;;;5050437;28;20531;-67
2021/09/22 12:26:10;;;;;;;57.40;2.30;;;32.10;1.00;;;;;;5050110;28;20535;-67
2021/09/22 12:28:38;;;;;;;57.40;2.10;;;31.90;1.00;;;;;;5050173;28;20547;-67
2021/09/22 12:31:19;;;;;;;57.67;2.50;;;31.70;1.00;;;;;;5050336;28;21110;-67
2021/09/22 12:33:48;;;;;;;57.57;2.30;;;31.70;1.00;;;;;;5050164;28;20484;-66
2021/09/22 12:36:17;;;;;;;58.07;2.40;;;31.90;1.00;;;;;;5050165;28;20472;-68
2021/09/22 12:38:46;;;;;;;57.00;2.10;;;32.10;1.00;;;;;;5051236;27;20478;-67
2021/09/22 12:41:14;;;;;;;57.10;2.43;;;32.20;1.00;;;;;;5050371;28;20503;-67
2021/09/22 12:43:42;;;;;;;57.00;2.00;;;32.20;1.00;;;;;;5050113;28;21015;-67
2021/09/22 12:46:10;;;;;;;57.07;2.10;;;31.90;1.00;;;;;;5049975;27;20483;-67
2021/09/22 12:48:38;;;;;;;57.50;2.40;;;31.50;1.00;;;;;;5050161;28;20460;-68
2021/09/22 12:51:14;;;;;;;57.10;2.10;;;30.70;1.00;;;;;;5050225;28;20484;-67
2021/09/22 12:53:42;;;;;;;57.37;2.10;;;29.90;1.00;;;;;;5049210;28;20576;-67
2021/09/22 12:56:11;;;;;;;57.23;2.10;;;29.50;1.00;;;;;;5049729;27;20558;-67
2021/09/22 12:58:40;;;;;;;60.20;3.27;;;29.40;1.00;;;;;;5049863;28;20467;-67
2021/09/22 13:01:08;;;;;;;58.60;3.43;;;29.80;1.00;;;;;;5049746;28;20446;-68
2021/09/22 13:03:37;;;;;;;57.03;1.90;;;30.30;1.00;;;;;;5050150;28;20534;-67